createdAt,value
2022-08-01T00:01:33.698Z,1.75
2022-08-01T00:04:01.936Z,0.68
2022-08-01T00:06:29.854Z,0.00
2022-08-01T00:08:58.644Z,0.50
2022-08-01T00:11:27.402Z,0.00
2022-08-01T00:13:56.564Z,0.25
2022-08-01T00:16:24.635Z,0.05
2022-08-01T00:18:57.520Z,2.28
2022-08-01T00:21:27.121Z,0.50
2022-08-01T00:23:56.038Z,0.00
2022-08-01T00:26:23.958Z,0.00
2022-08-01T00:28:51.954Z,2.15
2022-08-01T00:31:21.376Z,0.00
2022-08-01T00:33:50.089Z,0.00
2022-08-01T00:36:19.480Z,0.80
2022-08-01T00:38:47.365Z,0.10
2022-08-01T00:41:15.820Z,0.40
2022-08-01T00:43:44.343Z,0.00
2022-08-01T00:46:12.202Z,0.30
2022-08-01T00:49:41.753Z,0.30
2022-08-01T00:52:12.986Z,0.00
2022-08-01T00:54:41.146Z,0.43
2022-08-01T00:57:10.105Z,0.65
2022-08-01T00:59:39.876Z,0.08
2022-08-01T01:02:15.760Z,0.00
2022-08-01T01:04:43.994Z,0.00
2022-08-01T01:07:19.453Z,0.00
2022-08-01T01:09:54.848Z,0.60
2022-08-01T01:12:37.337Z,0.00
2022-08-01T01:15:09.902Z,0.23
2022-08-01T01:17:50.470Z,0.13
2022-08-01T01:20:24.229Z,0.30
2022-08-01T01:23:12.779Z,0.10
2022-08-01T01:25:47.642Z,0.20
2022-08-01T01:28:23.036Z,0.03
2022-08-01T01:30:54.143Z,0.17
2022-08-01T01:33:23.649Z,0.10
2022-08-01T01:35:55.309Z,0.00
2022-08-01T01:38:26.880Z,0.10
2022-08-01T01:40:56.146Z,1.00
2022-08-01T01:43:28.726Z,0.60
2022-08-01T01:45:58.557Z,3.10
2022-08-01T01:48:27.748Z,0.60
2022-08-01T01:50:58.061Z,0.03
2022-08-01T01:53:27.292Z,0.00
2022-08-01T01:56:56.508Z,0.00
2022-08-01T01:59:28.409Z,0.30
2022-08-01T02:02:08.828Z,0.50
2022-08-01T02:04:38.646Z,2.30
2022-08-01T02:07:08.170Z,1.60
2022-08-01T02:09:36.491Z,0.00
2022-08-01T02:12:09.216Z,0.70
2022-08-01T02:14:38.031Z,0.20
2022-08-01T02:17:07.653Z,0.10
2022-08-01T02:19:37.882Z,0.60
2022-08-01T02:22:10.161Z,0.20
2022-08-01T02:24:39.910Z,0.00
2022-08-01T02:27:11.509Z,0.00
2022-08-01T02:29:43.347Z,0.00
2022-08-01T02:32:22.685Z,0.90
2022-08-01T02:34:53.445Z,0.10
2022-08-01T02:37:22.195Z,0.80
2022-08-01T02:39:53.191Z,1.00
2022-08-01T02:42:21.137Z,0.08
2022-08-01T02:44:50.603Z,0.00
2022-08-01T02:47:22.342Z,0.15
2022-08-01T02:53:44.169Z,11.00
2022-08-01T02:56:14.368Z,0.15
2022-08-01T02:58:42.973Z,0.20
2022-08-01T03:01:11.615Z,0.00
2022-08-01T03:03:46.752Z,2.22
2022-08-01T03:06:15.616Z,0.20
2022-08-01T03:08:44.732Z,0.10
2022-08-01T03:11:13.716Z,0.20
2022-08-01T03:13:43.829Z,0.03
2022-08-01T03:17:15.684Z,0.00
2022-08-01T03:19:48.176Z,0.00
2022-08-01T03:22:18.053Z,0.00
2022-08-01T03:24:48.743Z,0.10
2022-08-01T03:27:20.371Z,0.53
2022-08-01T03:29:48.794Z,0.10
2022-08-01T03:32:17.485Z,0.43
2022-08-01T03:34:50.312Z,0.10
2022-08-01T03:37:25.153Z,0.10
2022-08-01T03:39:56.972Z,0.10
2022-08-01T03:42:27.594Z,0.10
2022-08-01T03:44:59.354Z,0.20
2022-08-01T03:47:33.164Z,0.20
2022-08-01T03:50:04.043Z,0.43
2022-08-01T03:52:32.892Z,0.00
2022-08-01T03:55:06.197Z,0.10
2022-08-01T03:57:35.783Z,0.50
2022-08-01T04:00:10.416Z,0.00
2022-08-01T04:02:39.192Z,0.40
2022-08-01T04:05:10.653Z,0.90
2022-08-01T04:07:40.331Z,0.10
2022-08-01T04:10:13.042Z,0.20
2022-08-01T04:12:41.263Z,0.00
2022-08-01T04:15:10.472Z,0.00
2022-08-01T04:17:38.546Z,1.73
2022-08-01T04:23:51.529Z,0.00
2022-08-01T04:26:21.447Z,0.08
2022-08-01T04:28:51.025Z,0.00
2022-08-01T04:31:19.771Z,0.20
2022-08-01T04:33:50.730Z,0.10
2022-08-01T04:36:20.421Z,0.00
2022-08-01T04:38:56.703Z,0.00
2022-08-01T04:41:25.090Z,0.00
2022-08-01T04:43:55.792Z,0.60
2022-08-01T04:46:25.772Z,1.10
2022-08-01T04:48:54.451Z,0.00
2022-08-01T04:51:23.385Z,0.05
2022-08-01T04:53:57.572Z,0.00
2022-08-01T04:56:31.276Z,0.00
2022-08-01T04:59:19.783Z,0.05
2022-08-01T05:01:51.006Z,0.00
2022-08-01T05:04:19.583Z,0.30
2022-08-01T05:06:47.430Z,0.55
2022-08-01T05:09:17.020Z,0.00
2022-08-01T05:11:45.792Z,0.10
2022-08-01T05:14:13.597Z,0.00
2022-08-01T05:16:42.793Z,0.20
2022-08-01T05:19:11.409Z,0.90
2022-08-01T05:21:39.561Z,0.50
2022-08-01T05:24:08.130Z,0.00
2022-08-01T05:26:38.400Z,0.20
2022-08-01T05:29:07.196Z,0.90
2022-08-01T05:31:35.811Z,0.00
2022-08-01T05:34:03.925Z,0.00
2022-08-01T05:36:32.292Z,0.70
2022-08-01T05:39:01.260Z,0.00
2022-08-01T05:41:30.223Z,0.20
2022-08-01T05:44:00.538Z,0.00
2022-08-01T05:46:29.215Z,0.20
2022-08-01T05:48:58.181Z,0.00
2022-08-01T05:51:26.261Z,0.08
2022-08-01T05:53:54.260Z,0.00
2022-08-01T05:56:23.139Z,0.75
2022-08-01T05:58:51.695Z,0.00
2022-08-01T06:01:24.675Z,0.00
2022-08-01T06:03:55.222Z,0.00
2022-08-01T06:06:25.580Z,2.10
2022-08-01T06:08:53.929Z,0.00
2022-08-01T06:11:22.694Z,0.00
2022-08-01T06:13:53.270Z,0.00
2022-08-01T06:16:22.753Z,0.10
2022-08-01T06:18:56.514Z,0.00
2022-08-01T06:21:25.682Z,0.00
2022-08-01T06:23:53.573Z,0.10
2022-08-01T06:26:22.447Z,0.03
2022-08-01T06:28:50.490Z,0.50
2022-08-01T06:31:18.394Z,0.00
2022-08-01T06:33:47.331Z,0.10
2022-08-01T06:36:14.937Z,0.00
2022-08-01T06:38:42.542Z,0.00
2022-08-01T06:41:10.260Z,0.70
2022-08-01T06:43:37.811Z,0.10
2022-08-01T06:46:06.340Z,0.00
2022-08-01T06:48:33.883Z,0.00
2022-08-01T06:51:14.632Z,0.00
2022-08-01T06:53:42.262Z,0.40
2022-08-01T06:56:11.858Z,0.00
2022-08-01T06:58:40.205Z,0.20
2022-08-01T07:01:08.411Z,1.40
2022-08-01T07:03:54.365Z,0.00
2022-08-01T07:06:24.696Z,0.00
2022-08-01T07:08:52.468Z,0.00
2022-08-01T07:11:20.353Z,0.10
2022-08-01T07:13:48.011Z,0.85
2022-08-01T07:16:16.342Z,0.00
2022-08-01T07:18:44.188Z,0.00
2022-08-01T07:21:38.896Z,0.10
2022-08-01T07:24:00.908Z,0.30
2022-08-01T07:26:28.607Z,3.20
2022-08-01T07:28:56.260Z,0.00
2022-08-01T07:31:27.347Z,0.00
2022-08-01T07:33:57.331Z,0.00
2022-08-01T07:36:25.316Z,0.00
2022-08-01T07:38:53.271Z,0.00
2022-08-01T07:41:22.780Z,0.00
2022-08-01T07:44:10.652Z,0.00
2022-08-01T07:46:39.125Z,0.00
2022-08-01T07:49:07.010Z,0.00
2022-08-01T07:51:34.785Z,0.00
2022-08-01T07:54:02.625Z,0.00
2022-08-01T07:56:31.712Z,0.00
2022-08-01T07:58:59.458Z,0.10
2022-08-01T08:01:28.409Z,0.00
2022-08-01T08:03:56.513Z,0.00
2022-08-01T08:06:24.222Z,0.15
2022-08-01T08:08:51.968Z,0.00
2022-08-01T08:11:19.780Z,0.40
2022-08-01T08:13:48.830Z,0.00
2022-08-01T08:16:16.766Z,0.00
2022-08-01T08:18:44.878Z,0.00
2022-08-01T08:21:13.508Z,0.00
2022-08-01T08:23:59.198Z,0.00
2022-08-01T08:26:27.655Z,0.20
2022-08-01T08:29:01.925Z,0.00
2022-08-01T08:32:31.587Z,0.00
2022-08-01T08:34:59.533Z,0.00
2022-08-01T08:37:31.488Z,0.00
2022-08-01T08:40:08.095Z,0.00
2022-08-01T08:42:36.918Z,0.00
2022-08-01T08:45:11.928Z,0.00
2022-08-01T08:47:40.633Z,0.00
2022-08-01T08:50:09.058Z,0.00
2022-08-01T08:52:40.696Z,0.00
2022-08-01T08:55:10.361Z,0.00
2022-08-01T08:57:41.864Z,0.15
2022-08-01T09:00:14.297Z,0.00
2022-08-01T09:02:43.923Z,0.00
2022-08-01T09:05:18.937Z,0.10
2022-08-01T09:07:49.302Z,0.40
2022-08-01T09:11:22.962Z,0.00
2022-08-01T09:14:05.038Z,0.00
2022-08-01T09:16:44.210Z,0.00
2022-08-01T09:19:39.812Z,0.00
2022-08-01T09:22:09.745Z,0.00
2022-08-01T09:24:39.443Z,0.00
2022-08-01T09:27:21.733Z,0.35
2022-08-01T09:30:01.613Z,0.00
2022-08-01T09:32:36.453Z,0.00
2022-08-01T09:35:31.151Z,0.50
2022-08-01T09:38:16.860Z,0.30
2022-08-01T09:40:49.502Z,0.00
2022-08-01T09:43:19.188Z,0.60
2022-08-01T09:45:50.598Z,0.00
2022-08-01T09:48:28.456Z,0.00
2022-08-01T09:51:04.695Z,0.00
2022-08-01T09:53:51.391Z,0.40
2022-08-01T09:56:23.411Z,0.10
2022-08-01T09:58:59.914Z,0.00
2022-08-01T10:01:37.389Z,0.30
2022-08-01T10:04:12.112Z,6.50
2022-08-01T10:06:44.079Z,0.00
2022-08-01T10:09:13.296Z,0.00
2022-08-01T10:11:43.272Z,0.00
2022-08-01T10:14:14.770Z,0.00
2022-08-01T10:16:53.547Z,0.40
2022-08-01T10:19:30.066Z,0.00
2022-08-01T10:22:01.035Z,0.00
2022-08-01T10:24:31.185Z,0.00
2022-08-01T10:27:09.155Z,0.00
2022-08-01T10:29:45.623Z,0.00
2022-08-01T10:32:17.281Z,0.00
2022-08-01T10:34:46.952Z,0.00
2022-08-01T10:37:18.187Z,0.00
2022-08-01T10:39:46.986Z,0.00
2022-08-01T10:42:15.593Z,0.00
2022-08-01T10:44:47.236Z,0.30
2022-08-01T10:47:23.024Z,0.00
2022-08-01T10:50:01.208Z,0.00
2022-08-01T10:52:30.703Z,0.00
2022-08-01T10:55:04.793Z,0.00
2022-08-01T10:57:44.490Z,0.30
2022-08-01T11:00:21.580Z,0.00
2022-08-01T11:03:01.750Z,0.25
2022-08-01T11:05:34.073Z,1.20
2022-08-01T11:08:04.327Z,0.00
2022-08-01T11:10:37.097Z,0.00
2022-08-01T11:13:08.928Z,0.10
2022-08-01T11:15:50.160Z,0.00
2022-08-01T11:18:37.504Z,0.00
2022-08-01T11:21:57.880Z,0.00
2022-08-01T11:23:55.560Z,0.00
2022-08-01T11:26:29.131Z,0.30
2022-08-01T11:29:22.118Z,0.08
2022-08-01T11:31:52.894Z,3.60
2022-08-01T11:34:55.479Z,0.00
2022-08-01T11:37:30.801Z,0.40
2022-08-01T11:40:18.710Z,0.08
2022-08-01T11:42:47.076Z,0.20
2022-08-01T11:45:18.671Z,0.10
2022-08-01T11:47:47.951Z,0.30
2022-08-01T11:50:37.167Z,0.25
2022-08-01T11:53:11.377Z,0.10
2022-08-01T11:55:47.652Z,1.10
2022-08-01T11:58:27.505Z,0.00
2022-08-01T12:00:59.309Z,0.00
2022-08-01T12:03:33.014Z,0.00
2022-08-01T12:06:01.893Z,0.00
2022-08-01T12:08:34.125Z,0.00
2022-08-01T12:11:02.771Z,0.30
2022-08-01T12:13:41.756Z,0.00
2022-08-01T12:16:10.436Z,0.00
2022-08-01T12:18:40.979Z,0.00
2022-08-01T12:21:09.483Z,0.30
2022-08-01T12:23:39.662Z,0.10
2022-08-01T12:26:08.501Z,0.20
2022-08-01T12:28:57.044Z,0.00
2022-08-01T12:31:33.643Z,0.60
2022-08-01T12:34:29.875Z,0.00
2022-08-01T12:36:58.935Z,0.00
2022-08-01T12:43:15.850Z,0.90
2022-08-01T12:45:57.336Z,0.00
2022-08-01T12:48:26.550Z,0.00
2022-08-01T12:50:57.028Z,0.00
2022-08-01T12:53:39.660Z,0.30
2022-08-01T12:56:12.127Z,0.00
2022-08-01T12:58:45.359Z,0.00
2022-08-01T13:01:14.516Z,0.00
2022-08-01T13:03:42.572Z,0.00
2022-08-01T13:06:17.759Z,0.00
2022-08-01T13:08:47.844Z,0.00
2022-08-01T13:12:20.774Z,0.00
2022-08-01T13:14:50.372Z,0.00
2022-08-01T13:17:32.931Z,0.10
2022-08-01T13:20:01.498Z,0.00
2022-08-01T13:22:34.611Z,0.60
2022-08-01T13:25:13.083Z,0.00
2022-08-01T13:27:53.529Z,1.70
2022-08-01T13:30:25.196Z,0.00
2022-08-01T13:33:03.096Z,0.70
2022-08-01T13:35:31.280Z,0.17
2022-08-01T13:37:59.268Z,0.00
2022-08-01T13:40:28.349Z,0.00
2022-08-01T13:42:57.735Z,0.00
2022-08-01T13:45:26.900Z,3.90
2022-08-01T13:48:03.707Z,4.32
2022-08-01T13:50:40.682Z,5.55
2022-08-01T13:53:09.085Z,5.75
2022-08-01T13:55:37.471Z,3.35
2022-08-01T13:58:06.175Z,7.68
2022-08-01T14:00:36.902Z,5.38
2022-08-01T14:03:05.195Z,12.82
2022-08-01T14:05:33.925Z,6.85
2022-08-01T14:08:02.976Z,4.72
2022-08-01T14:10:32.645Z,7.82
2022-08-01T14:13:01.956Z,8.15
2022-08-01T14:16:31.077Z,5.32
2022-08-01T14:19:04.069Z,5.85
2022-08-01T14:21:32.897Z,4.47
2022-08-01T14:24:07.685Z,4.20
2022-08-01T14:26:38.042Z,6.20
2022-08-01T14:29:06.186Z,5.05
2022-08-01T14:31:34.673Z,6.88
2022-08-01T14:34:05.166Z,6.68
2022-08-01T14:36:38.109Z,7.28
2022-08-01T14:39:07.363Z,7.53
2022-08-01T14:41:43.041Z,4.47
2022-08-01T14:44:15.340Z,7.35
2022-08-01T14:46:57.874Z,6.15
2022-08-01T14:49:28.160Z,4.38
2022-08-01T14:51:56.234Z,4.07
2022-08-01T14:54:26.746Z,6.80
2022-08-01T14:56:58.435Z,5.88
2022-08-01T14:59:27.462Z,4.07
2022-08-01T15:01:57.312Z,5.20
2022-08-01T15:04:31.605Z,5.90
2022-08-01T15:07:00.566Z,8.30
2022-08-01T15:14:10.880Z,12.23
2022-08-01T15:16:40.686Z,7.07
2022-08-01T15:19:10.733Z,5.50
2022-08-01T15:22:43.053Z,6.65
2022-08-01T15:25:12.659Z,5.32
2022-08-01T15:27:41.784Z,8.18
2022-08-01T15:30:10.643Z,5.78
2022-08-01T15:32:39.921Z,3.03
2022-08-01T15:35:11.596Z,4.90
2022-08-01T15:37:43.225Z,7.75
2022-08-01T15:40:14.026Z,4.65
2022-08-01T15:42:42.657Z,5.32
2022-08-01T15:45:37.383Z,4.70
2022-08-01T15:48:05.337Z,8.05
2022-08-01T15:55:15.915Z,4.93
2022-08-01T15:57:46.159Z,6.43
2022-08-01T16:00:15.182Z,5.18
2022-08-01T16:06:24.837Z,4.82
2022-08-01T16:08:53.736Z,4.43
2022-08-01T16:16:03.270Z,4.47
2022-08-01T16:22:15.547Z,4.20
2022-08-01T16:24:43.922Z,3.77
2022-08-01T16:27:13.849Z,5.05
2022-08-01T16:29:43.021Z,3.77
2022-08-01T16:32:22.569Z,4.30
2022-08-01T16:34:53.668Z,4.65
2022-08-01T16:37:24.150Z,3.88
2022-08-01T16:39:52.357Z,6.32
2022-08-01T16:42:27.512Z,7.68
2022-08-01T16:45:57.062Z,5.95
2022-08-01T16:48:27.000Z,8.32
2022-08-01T16:51:59.463Z,8.00
2022-08-01T16:54:32.708Z,5.63
2022-08-01T16:57:08.506Z,6.82
2022-08-01T16:59:41.328Z,5.15
2022-08-01T17:02:12.215Z,6.50
2022-08-01T17:08:22.867Z,10.30
2022-08-01T17:10:53.342Z,4.28
2022-08-01T17:13:23.597Z,8.10
2022-08-01T17:15:53.692Z,6.85
2022-08-01T17:23:03.975Z,7.68
2022-08-01T17:26:33.398Z,4.97
2022-08-01T17:29:04.021Z,4.93
2022-08-01T17:31:33.370Z,6.50
2022-08-01T17:34:02.303Z,5.93
2022-08-01T17:36:30.712Z,5.57
2022-08-01T17:39:00.276Z,9.32
2022-08-01T17:41:30.702Z,5.22
2022-08-01T17:44:00.823Z,7.03
2022-08-01T17:46:31.648Z,7.78
2022-08-01T17:51:45.822Z,7.32
2022-08-01T17:57:56.218Z,4.05
2022-08-01T18:00:24.720Z,7.25
2022-08-01T18:03:57.421Z,5.93
2022-08-01T18:06:28.997Z,5.53
2022-08-01T18:12:39.568Z,4.80
2022-08-01T18:15:10.178Z,8.88
2022-08-01T18:21:25.575Z,10.23
2022-08-01T18:23:55.421Z,12.32
2022-08-01T18:26:23.700Z,7.75
2022-08-01T18:28:52.205Z,6.55
2022-08-01T18:31:23.563Z,5.07
2022-08-01T18:33:51.722Z,6.83
2022-08-01T18:36:32.952Z,6.45
2022-08-01T18:42:51.792Z,4.93
2022-08-01T18:45:21.393Z,6.70
2022-08-01T18:47:49.917Z,5.72
2022-08-01T18:50:18.943Z,7.97
2022-08-01T18:52:47.977Z,9.52
2022-08-01T18:55:17.834Z,6.18
2022-08-01T18:57:46.840Z,10.00
2022-08-01T19:00:15.694Z,9.38
2022-08-01T19:02:43.899Z,9.52
2022-08-01T19:05:13.130Z,5.33
2022-08-01T19:08:05.547Z,10.40
2022-08-01T19:10:33.465Z,7.78
2022-08-01T19:13:02.389Z,12.90
2022-08-01T19:15:34.796Z,10.50
2022-08-01T19:18:03.391Z,5.80
2022-08-01T19:20:32.756Z,7.35
2022-08-01T19:23:21.400Z,9.60
2022-08-01T19:25:55.640Z,6.68
2022-08-01T19:28:26.103Z,8.73
2022-08-01T19:30:55.459Z,9.57
2022-08-01T19:34:26.685Z,7.85
2022-08-01T19:37:00.101Z,8.00
2022-08-01T19:39:29.344Z,11.52
2022-08-01T19:42:04.397Z,6.82
2022-08-01T19:44:33.486Z,6.83
2022-08-01T19:47:02.439Z,9.38
2022-08-01T19:50:31.754Z,12.73
2022-08-01T19:53:02.356Z,18.38
2022-08-01T19:55:34.244Z,5.60
2022-08-01T19:58:26.465Z,7.97
2022-08-01T20:00:55.888Z,8.77
2022-08-01T20:03:25.252Z,12.73
2022-08-01T20:05:54.513Z,9.35
2022-08-01T20:08:23.435Z,13.45
2022-08-01T20:10:52.148Z,10.70
2022-08-01T20:13:22.222Z,9.32
2022-08-01T20:15:53.986Z,8.15
2022-08-01T20:18:22.053Z,7.90
2022-08-01T20:20:51.332Z,8.88
2022-08-01T20:23:21.437Z,9.50
2022-08-01T20:25:53.453Z,9.73
2022-08-01T20:28:27.913Z,9.77
2022-08-01T20:31:03.518Z,9.18
2022-08-01T20:33:36.362Z,7.53
2022-08-01T20:36:05.633Z,11.35
2022-08-01T20:38:42.196Z,11.00
2022-08-01T20:41:10.763Z,10.35
2022-08-01T20:43:43.624Z,12.00
2022-08-01T20:46:13.950Z,10.50
2022-08-01T20:48:41.919Z,7.78
2022-08-01T20:51:19.885Z,10.35
2022-08-01T20:53:52.628Z,8.17
2022-08-01T20:56:30.965Z,8.60
2022-08-01T20:59:06.768Z,9.23
2022-08-01T21:01:40.587Z,9.53
2022-08-01T21:04:29.731Z,11.20
2022-08-01T21:07:05.054Z,13.40
2022-08-01T21:09:39.474Z,5.63
2022-08-01T21:12:14.776Z,10.70
2022-08-01T21:14:53.743Z,11.93
2022-08-01T21:17:33.928Z,7.63
2022-08-01T21:20:07.615Z,8.65
2022-08-01T21:22:39.141Z,10.18
2022-08-01T21:25:11.105Z,7.83
2022-08-01T21:27:41.127Z,20.25
2022-08-01T21:30:11.754Z,11.90
2022-08-01T21:32:43.111Z,13.88
2022-08-01T21:35:15.978Z,11.57
2022-08-01T21:42:01.688Z,10.85
2022-08-01T21:44:16.670Z,12.70
2022-08-01T21:46:47.208Z,10.00
2022-08-01T21:49:15.342Z,10.88
2022-08-01T21:51:45.699Z,8.77
2022-08-01T21:54:26.110Z,9.05
2022-08-01T21:57:00.740Z,11.57
2022-08-01T21:59:34.432Z,10.65
2022-08-01T22:02:09.384Z,14.25
2022-08-01T22:04:44.565Z,13.73
2022-08-01T22:07:15.649Z,7.32
2022-08-01T22:09:47.166Z,11.88
2022-08-01T22:12:18.271Z,15.07
2022-08-01T22:14:49.459Z,15.85
2022-08-01T22:17:22.662Z,11.68
2022-08-01T22:19:53.953Z,10.30
2022-08-01T22:22:44.525Z,11.38
2022-08-01T22:25:12.353Z,11.00
2022-08-01T22:28:07.828Z,8.63
2022-08-01T22:30:30.367Z,11.33
2022-08-01T22:33:07.888Z,13.40
2022-08-01T22:35:46.925Z,10.30
2022-08-01T22:38:14.967Z,14.80
2022-08-01T22:40:50.171Z,15.95
2022-08-01T22:43:26.142Z,11.82
2022-08-01T22:46:04.147Z,15.38
2022-08-01T22:48:39.754Z,14.20
2022-08-01T22:51:12.022Z,12.13
2022-08-01T22:53:45.005Z,10.73
2022-08-01T22:56:14.903Z,15.37
2022-08-01T22:58:45.046Z,14.00
2022-08-01T23:01:21.298Z,10.45
2022-08-01T23:03:52.124Z,10.98
2022-08-01T23:06:26.017Z,12.98
2022-08-01T23:08:57.507Z,11.73
2022-08-01T23:11:25.430Z,11.43
2022-08-01T23:13:53.919Z,9.43
2022-08-01T23:16:23.663Z,18.90
2022-08-01T23:18:57.146Z,10.98
2022-08-01T23:21:25.260Z,12.68
2022-08-01T23:23:55.443Z,15.20
2022-08-01T23:26:25.294Z,9.38
2022-08-01T23:28:54.207Z,13.00
2022-08-01T23:31:55.577Z,10.82
2022-08-01T23:34:19.616Z,15.68
2022-08-01T23:36:48.002Z,19.13
2022-08-01T23:39:17.012Z,10.30
2022-08-01T23:41:57.300Z,15.07
2022-08-01T23:44:26.643Z,14.23
2022-08-01T23:46:54.577Z,16.20
2022-08-01T23:49:27.305Z,19.42
2022-08-01T23:51:56.276Z,12.88
2022-08-01T23:54:24.813Z,8.00
2022-08-01T23:56:52.965Z,10.55
2022-08-01T23:59:21.357Z,13.00
